createdAt,value
2019-02-21T00:00:01.888Z,1.13
2019-02-21T00:01:01.816Z,1.16
2019-02-21T00:02:01.815Z,1.12
2019-02-21T00:03:01.791Z,1.16
2019-02-21T00:04:01.786Z,1.19
2019-02-21T00:05:01.790Z,1.20
2019-02-21T00:06:01.769Z,1.24
2019-02-21T00:07:01.783Z,1.16
2019-02-21T00:08:01.733Z,1.14
2019-02-21T00:09:01.762Z,1.13
2019-02-21T00:10:01.744Z,1.22
2019-02-21T00:11:01.711Z,1.28
2019-02-21T00:12:01.693Z,1.23
2019-02-21T00:13:01.679Z,1.26
2019-02-21T00:14:01.709Z,1.19
2019-02-21T00:15:01.658Z,1.32
2019-02-21T00:16:01.659Z,1.40
2019-02-21T00:17:01.639Z,1.35
2019-02-21T00:18:01.636Z,1.44
2019-02-21T00:19:01.655Z,1.45
2019-02-21T00:20:01.606Z,1.48
2019-02-21T00:21:01.612Z,1.55
2019-02-21T00:22:01.590Z,1.58
2019-02-21T00:23:01.586Z,1.70
2019-02-21T00:24:01.593Z,1.73
2019-02-21T00:25:01.562Z,1.74
2019-02-21T00:26:01.571Z,1.87
2019-02-21T00:27:01.559Z,1.89
2019-02-21T00:28:01.530Z,1.95
2019-02-21T00:29:01.527Z,2.10
2019-02-21T00:30:01.523Z,2.07
2019-02-21T00:31:01.477Z,2.07
2019-02-21T00:32:01.541Z,2.07
2019-02-21T00:33:01.463Z,2.08
2019-02-21T00:34:01.489Z,2.13
2019-02-21T00:35:01.439Z,2.14
2019-02-21T00:36:01.435Z,2.14
2019-02-21T00:37:01.414Z,2.07
2019-02-21T00:38:01.408Z,2.07
2019-02-21T00:39:01.459Z,2.08
2019-02-21T00:40:01.402Z,2.08
2019-02-21T00:41:01.375Z,2.00
2019-02-21T00:42:01.385Z,2.08
2019-02-21T00:43:01.357Z,1.97
2019-02-21T00:44:01.350Z,1.87
2019-02-21T00:45:01.355Z,1.92
2019-02-21T00:46:01.311Z,1.88
2019-02-21T00:47:01.303Z,1.94
2019-02-21T00:48:01.320Z,1.92
2019-02-21T00:49:01.331Z,1.81
2019-02-21T00:50:01.270Z,1.88
2019-02-21T00:51:01.263Z,1.89
2019-02-21T00:52:02.783Z,1.89
2019-02-21T00:53:01.264Z,1.89
2019-02-21T00:54:01.227Z,1.88
2019-02-21T00:55:01.233Z,1.92
2019-02-21T01:12:08.941Z,1.62
2019-02-21T01:13:08.945Z,1.44
2019-02-21T01:14:08.906Z,1.52
2019-02-21T01:15:08.904Z,1.52
2019-02-21T01:16:08.891Z,1.48
2019-02-21T01:17:08.875Z,1.40
2019-02-21T01:18:08.885Z,1.37
2019-02-21T01:19:08.853Z,1.37
2019-02-21T01:20:08.860Z,1.35
2019-02-21T01:21:08.832Z,1.32
2019-02-21T01:22:08.819Z,1.20
2019-02-21T01:23:08.895Z,1.28
2019-02-21T01:24:08.844Z,1.23
2019-02-21T01:25:08.782Z,1.23
2019-02-21T01:26:08.773Z,1.20
2019-02-21T01:27:08.772Z,1.19
2019-02-21T01:28:08.757Z,1.13
2019-02-21T01:29:08.779Z,1.10
2019-02-21T01:30:08.741Z,1.13
2019-02-21T01:31:08.743Z,1.12
2019-02-21T01:32:08.707Z,1.02
2019-02-21T01:33:08.766Z,0.98
2019-02-21T01:34:08.703Z,1.02
2019-02-21T01:35:08.693Z,0.92
2019-02-21T01:36:08.727Z,0.99
2019-02-21T01:37:08.670Z,0.98
2019-02-21T01:38:08.643Z,0.95
2019-02-21T01:39:08.651Z,0.96
2019-02-21T01:40:08.632Z,1.05
2019-02-21T01:41:08.638Z,1.04
2019-02-21T01:42:08.611Z,1.06
2019-02-21T01:43:08.607Z,1.06
2019-02-21T01:44:08.575Z,1.05
2019-02-21T01:45:08.572Z,1.01
2019-02-21T01:46:08.605Z,0.99
2019-02-21T01:47:08.541Z,0.99
2019-02-21T01:48:08.538Z,0.91
2019-02-21T01:49:08.516Z,1.05
2019-02-21T01:50:08.511Z,1.02
2019-02-21T01:51:08.565Z,1.04
2019-02-21T01:52:08.483Z,0.98
2019-02-21T01:53:08.516Z,1.06
2019-02-21T01:54:08.465Z,0.95
2019-02-21T01:55:08.475Z,1.02
2019-02-21T01:56:08.471Z,0.95
2019-02-21T01:57:08.434Z,0.94
2019-02-21T01:58:08.428Z,0.99
2019-02-21T01:59:08.438Z,0.92
2019-02-21T02:00:08.434Z,1.02
2019-02-21T02:01:09.087Z,0.94
2019-02-21T02:02:08.400Z,0.96
2019-02-21T02:03:08.384Z,1.02
2019-02-21T02:04:08.365Z,0.96
2019-02-21T02:05:08.349Z,0.86
2019-02-21T02:06:08.326Z,0.86
2019-02-21T02:07:08.339Z,0.91
2019-02-21T02:08:08.306Z,0.95
2019-02-21T02:09:08.308Z,0.91
2019-02-21T02:10:08.300Z,0.84
2019-02-21T02:11:08.314Z,0.78
2019-02-21T02:12:08.278Z,0.87
2019-02-21T02:13:08.262Z,0.81
2019-02-21T02:14:08.268Z,0.88
2019-02-21T02:15:08.254Z,1.02
2019-02-21T02:16:08.227Z,1.05
2019-02-21T02:17:08.240Z,1.08
2019-02-21T02:18:08.199Z,1.14
2019-02-21T02:19:08.192Z,1.23
2019-02-21T02:20:08.194Z,1.32
2019-02-21T02:21:08.165Z,1.35
2019-02-21T02:22:08.183Z,1.37
2019-02-21T02:23:08.148Z,1.42
2019-02-21T02:24:08.139Z,1.56
2019-02-21T02:25:08.118Z,1.49
2019-02-21T02:26:08.130Z,1.70
2019-02-21T02:27:08.123Z,1.63
2019-02-21T02:28:08.098Z,1.74
2019-02-21T02:29:08.099Z,1.74
2019-02-21T02:30:08.089Z,1.81
2019-02-21T02:31:21.527Z,2.02
2019-02-21T02:32:09.756Z,2.04
2019-02-21T02:33:08.047Z,2.07
2019-02-21T02:34:08.031Z,2.14
2019-02-21T02:35:08.022Z,2.13
2019-02-21T02:36:08.013Z,2.13
2019-02-21T02:37:08.007Z,2.22
2019-02-21T02:38:07.986Z,2.26
2019-02-21T02:39:07.982Z,2.36
2019-02-21T02:40:07.958Z,2.39
2019-02-21T02:41:07.943Z,2.38
2019-02-21T02:42:07.943Z,2.43
2019-02-21T02:43:07.955Z,2.43
2019-02-21T02:44:07.933Z,2.44
2019-02-21T02:45:07.913Z,2.54
2019-02-21T02:46:07.908Z,2.67
2019-02-21T02:47:07.874Z,2.67
2019-02-21T02:48:07.900Z,2.67
2019-02-21T02:49:07.865Z,2.64
2019-02-21T02:50:07.855Z,2.65
2019-02-21T02:51:07.862Z,2.68
2019-02-21T02:52:07.818Z,2.64
2019-02-21T02:53:07.819Z,2.75
2019-02-21T02:54:07.796Z,2.74
2019-02-21T02:55:07.804Z,2.74
2019-02-21T02:56:07.789Z,2.75
2019-02-21T02:57:07.779Z,2.83
2019-02-21T02:58:07.758Z,2.89
2019-02-21T02:59:07.772Z,2.87
2019-02-21T03:00:07.732Z,2.93
2019-02-21T03:01:07.714Z,2.97
2019-02-21T03:02:07.755Z,3.04
2019-02-21T03:03:07.692Z,3.05
2019-02-21T03:04:07.711Z,2.97
2019-02-21T03:05:07.677Z,3.01
2019-02-21T03:06:07.657Z,3.03
2019-02-21T03:07:07.660Z,2.98
2019-02-21T03:08:07.655Z,3.08
2019-02-21T03:09:07.676Z,3.11
2019-02-21T03:10:07.613Z,3.04
2019-02-21T03:11:07.599Z,3.11
2019-02-21T03:12:07.590Z,3.03
2019-02-21T03:13:07.601Z,3.01
2019-02-21T03:14:07.577Z,3.11
2019-02-21T03:15:07.628Z,3.01
2019-02-21T03:16:07.569Z,3.11
2019-02-21T03:17:07.534Z,3.08
2019-02-21T03:18:07.523Z,3.04
2019-02-21T03:19:07.513Z,3.11
2019-02-21T03:20:07.517Z,3.19
2019-02-21T03:21:07.516Z,3.19
2019-02-21T03:22:07.498Z,3.25
2019-02-21T03:23:07.491Z,3.25
2019-02-21T03:24:07.467Z,3.25
2019-02-21T03:25:07.454Z,3.26
2019-02-21T03:26:07.483Z,3.37
2019-02-21T03:27:07.445Z,3.40
2019-02-21T03:28:07.425Z,3.47
2019-02-21T03:29:07.408Z,3.41
2019-02-21T03:30:11.932Z,3.45
2019-02-21T03:31:08.386Z,3.42
2019-02-21T03:32:07.399Z,3.45
2019-02-21T03:33:07.388Z,3.51
2019-02-21T03:34:07.353Z,3.53
2019-02-21T03:35:07.369Z,3.55
2019-02-21T03:36:07.334Z,3.51
2019-02-21T03:37:07.315Z,3.56
2019-02-21T03:38:07.324Z,3.56
2019-02-21T03:39:07.502Z,3.45
2019-02-21T03:40:07.282Z,3.53
2019-02-21T03:41:07.320Z,3.48
2019-02-21T03:42:07.271Z,3.50
2019-02-21T03:43:07.305Z,3.51
2019-02-21T03:44:07.257Z,3.48
2019-02-21T03:45:07.245Z,3.47
2019-02-21T03:46:07.224Z,3.60
2019-02-21T03:47:07.233Z,3.53
2019-02-21T03:48:07.210Z,3.51
2019-02-21T03:49:07.187Z,3.58
2019-02-21T03:50:07.206Z,3.48
2019-02-21T03:51:07.164Z,3.50
2019-02-21T03:52:07.185Z,3.55
2019-02-21T03:53:07.141Z,3.51
2019-02-21T03:54:07.146Z,3.63
2019-02-21T03:55:07.140Z,3.58
2019-02-21T03:56:07.109Z,3.51
2019-02-21T03:57:07.120Z,3.51
2019-02-21T03:58:07.091Z,3.58
2019-02-21T03:59:07.123Z,3.55
2019-02-21T04:00:07.089Z,3.55
2019-02-21T04:01:07.058Z,3.58
2019-02-21T04:02:07.062Z,3.62
2019-02-21T04:03:07.042Z,3.66
2019-02-21T04:04:07.041Z,3.62
2019-02-21T04:05:07.017Z,3.62
2019-02-21T04:06:07.026Z,3.65
2019-02-21T04:07:06.986Z,3.65
2019-02-21T04:08:06.994Z,3.68
2019-02-21T04:09:06.994Z,3.62
2019-02-21T04:10:06.953Z,3.69
2019-02-21T04:11:06.944Z,3.66
2019-02-21T04:12:06.939Z,3.68
2019-02-21T04:13:06.920Z,3.65
2019-02-21T04:14:06.933Z,3.70
2019-02-21T04:15:06.912Z,3.73
2019-02-21T04:16:06.892Z,3.76
2019-02-21T04:17:06.895Z,3.73
2019-02-21T04:18:06.990Z,3.69
2019-02-21T04:19:06.853Z,3.80
2019-02-21T04:20:06.850Z,3.83
2019-02-21T04:21:06.833Z,3.86
2019-02-21T04:22:06.865Z,3.87
2019-02-21T04:23:06.847Z,3.83
2019-02-21T04:24:06.803Z,3.86
2019-02-21T04:25:06.789Z,3.87
2019-02-21T04:26:06.778Z,3.86
2019-02-21T04:27:06.799Z,3.81
2019-02-21T04:28:06.758Z,3.80
2019-02-21T04:29:06.754Z,3.70
2019-02-21T04:30:06.772Z,3.76
2019-02-21T04:31:06.761Z,3.70
2019-02-21T04:32:16.662Z,3.76
2019-02-21T04:33:07.703Z,3.78
2019-02-21T04:34:06.695Z,3.70
2019-02-21T04:35:06.700Z,3.69
2019-02-21T04:36:06.677Z,3.76
2019-02-21T04:37:06.694Z,3.78
2019-02-21T04:38:06.697Z,3.69
2019-02-21T04:39:06.655Z,3.76
2019-02-21T04:40:06.653Z,3.70
2019-02-21T04:41:06.644Z,3.74
2019-02-21T04:42:06.657Z,3.63
2019-02-21T04:43:06.623Z,3.66
2019-02-21T04:44:06.601Z,3.66
2019-02-21T04:45:06.625Z,3.50
2019-02-21T04:46:06.579Z,3.55
2019-02-21T04:47:06.568Z,3.51
2019-02-21T04:48:06.588Z,3.55
2019-02-21T04:49:06.536Z,3.58
2019-02-21T04:50:06.569Z,3.56
2019-02-21T04:51:06.522Z,3.58
2019-02-21T04:52:06.523Z,3.56
2019-02-21T04:53:06.515Z,3.51
2019-02-21T04:54:06.497Z,3.55
2019-02-21T04:55:06.549Z,3.56
2019-02-21T04:56:06.477Z,3.55
2019-02-21T04:57:06.456Z,3.55
2019-02-21T04:58:06.444Z,3.55
2019-02-21T04:59:06.763Z,3.53
2019-02-21T05:00:06.483Z,3.59
2019-02-21T05:01:06.424Z,3.53
2019-02-21T05:02:06.403Z,3.51
2019-02-21T05:03:06.405Z,3.58
2019-02-21T05:04:06.396Z,3.56
2019-02-21T05:05:06.390Z,3.48
2019-02-21T05:06:06.375Z,3.50
2019-02-21T05:07:06.351Z,3.42
2019-02-21T05:08:06.358Z,3.56
2019-02-21T05:09:07.510Z,3.51
2019-02-21T05:10:06.340Z,3.48
2019-02-21T05:11:06.349Z,3.55
2019-02-21T05:12:06.300Z,3.53
2019-02-21T05:13:06.290Z,3.58
2019-02-21T05:14:06.293Z,3.55
2019-02-21T05:15:06.262Z,3.66
2019-02-21T05:16:06.297Z,3.63
2019-02-21T05:17:06.252Z,3.66
2019-02-21T05:18:06.234Z,3.55
2019-02-21T05:19:06.223Z,3.63
2019-02-21T05:20:06.232Z,3.63
2019-02-21T05:21:06.240Z,3.63
2019-02-21T05:22:06.200Z,3.63
2019-02-21T05:23:06.185Z,3.63
2019-02-21T05:24:06.180Z,3.62
2019-02-21T05:25:06.193Z,3.55
2019-02-21T05:26:06.180Z,3.51
2019-02-21T05:27:06.136Z,3.56
2019-02-21T05:28:06.131Z,3.50
2019-02-21T05:29:06.119Z,3.58
2019-02-21T05:30:06.114Z,3.60
2019-02-21T05:31:06.140Z,3.58
2019-02-21T05:32:06.110Z,3.55
2019-02-21T05:33:06.081Z,3.51
2019-02-21T05:34:06.077Z,3.44
2019-02-21T05:35:06.055Z,3.44
2019-02-21T05:36:06.075Z,3.50
2019-02-21T05:37:06.059Z,3.48
2019-02-21T05:38:07.777Z,3.50
2019-02-21T05:39:06.018Z,3.40
2019-02-21T05:40:06.017Z,3.37
2019-02-21T05:41:06.016Z,3.29
2019-02-21T05:42:05.995Z,3.31
2019-02-21T05:43:06.004Z,3.34
2019-02-21T05:44:05.971Z,3.40
2019-02-21T05:45:05.980Z,3.32
2019-02-21T05:46:05.937Z,3.37
2019-02-21T05:47:05.928Z,3.34
2019-02-21T05:48:05.970Z,3.31
2019-02-21T05:49:05.918Z,3.23
2019-02-21T05:50:05.907Z,3.21
2019-02-21T05:51:05.882Z,3.25
2019-02-21T05:52:05.898Z,3.23
2019-02-21T05:53:05.866Z,3.37
2019-02-21T05:54:05.869Z,3.23
2019-02-21T05:55:05.851Z,3.36
2019-02-21T05:56:05.838Z,3.40
2019-02-21T05:57:05.875Z,3.41
2019-02-21T05:58:05.808Z,3.42
2019-02-21T05:59:05.800Z,3.40
2019-02-21T06:00:05.796Z,3.32
2019-02-21T06:01:05.808Z,3.37
2019-02-21T06:02:05.769Z,3.25
2019-02-21T06:03:05.761Z,3.18
2019-02-21T06:04:05.791Z,3.14
2019-02-21T06:05:08.664Z,3.13
2019-02-21T06:06:05.729Z,3.10
2019-02-21T06:07:05.714Z,2.90
2019-02-21T06:08:05.710Z,3.05
2019-02-21T06:09:05.753Z,2.93
2019-02-21T06:10:05.688Z,2.86
2019-02-21T06:11:05.747Z,2.82
2019-02-21T06:12:05.674Z,2.80
2019-02-21T06:13:05.652Z,2.74
2019-02-21T06:14:05.655Z,2.77
2019-02-21T06:15:05.758Z,2.68
2019-02-21T06:16:05.653Z,2.65
2019-02-21T06:17:05.619Z,2.61
2019-02-21T06:18:05.629Z,2.54
2019-02-21T06:19:05.653Z,2.51
2019-02-21T06:20:05.583Z,2.61
2019-02-21T06:21:05.568Z,2.67
2019-02-21T06:22:10.722Z,2.69
2019-02-21T06:23:06.560Z,2.67
2019-02-21T06:24:05.547Z,2.67
2019-02-21T06:25:05.545Z,2.69
2019-02-21T06:26:05.529Z,2.67
2019-02-21T06:27:05.544Z,2.62
2019-02-21T06:28:05.490Z,2.69
2019-02-21T06:29:05.485Z,2.68
2019-02-21T06:30:05.498Z,2.61
2019-02-21T06:31:05.460Z,2.68
2019-02-21T06:32:13.824Z,2.67
2019-02-21T06:33:06.432Z,2.67
2019-02-21T06:34:05.426Z,2.72
2019-02-21T06:35:05.467Z,2.69
2019-02-21T06:36:05.401Z,2.71
2019-02-21T06:37:05.418Z,2.75
2019-02-21T06:38:05.392Z,2.92
2019-02-21T06:39:05.367Z,2.93
2019-02-21T06:40:05.381Z,2.98
2019-02-21T06:41:05.452Z,3.04
2019-02-21T06:42:05.366Z,3.03
2019-02-21T06:43:05.361Z,3.08
2019-02-21T06:44:05.316Z,3.11
2019-02-21T06:45:05.304Z,3.01
2019-02-21T06:46:05.303Z,3.08
2019-02-21T06:47:05.279Z,3.08
2019-02-21T06:48:05.297Z,3.11
2019-02-21T06:49:05.261Z,3.07
2019-02-21T06:50:05.275Z,3.11
2019-02-21T06:51:05.264Z,3.18
2019-02-21T06:52:05.226Z,3.21
2019-02-21T06:53:05.234Z,3.22
2019-02-21T06:54:05.238Z,3.32
2019-02-21T06:55:05.192Z,3.40
2019-02-21T06:56:05.225Z,3.47
2019-02-21T06:57:05.187Z,3.51
2019-02-21T06:58:05.194Z,3.51
2019-02-21T06:59:05.193Z,3.55
2019-02-21T07:00:05.140Z,3.55
2019-02-21T07:01:05.158Z,3.55
2019-02-21T07:02:05.117Z,3.65
2019-02-21T07:03:15.218Z,3.69
2019-02-21T07:04:06.127Z,3.70
2019-02-21T07:05:05.088Z,3.69
2019-02-21T07:06:05.092Z,3.76
2019-02-21T07:07:05.073Z,3.88
2019-02-21T07:08:05.054Z,3.84
2019-02-21T07:09:05.079Z,3.86
2019-02-21T07:10:05.028Z,3.95
2019-02-21T07:11:06.497Z,3.92
2019-02-21T07:12:05.034Z,4.10
2019-02-21T07:13:05.003Z,4.19
2019-02-21T07:14:05.072Z,4.20
2019-02-21T07:15:04.978Z,4.17
2019-02-21T07:16:04.972Z,4.23
2019-02-21T07:17:04.956Z,4.24
2019-02-21T07:18:04.969Z,4.24
2019-02-21T07:19:04.965Z,4.28
2019-02-21T07:20:04.955Z,4.23
2019-02-21T07:21:04.919Z,4.22
2019-02-21T07:22:06.280Z,4.23
2019-02-21T07:23:04.921Z,4.24
2019-02-21T07:24:04.894Z,4.24
2019-02-21T07:25:04.906Z,4.37
2019-02-21T07:26:04.884Z,4.34
2019-02-21T07:27:04.881Z,4.31
2019-02-21T07:28:11.798Z,4.35
2019-02-21T07:29:05.872Z,4.41
2019-02-21T07:30:04.828Z,4.40
2019-02-21T07:31:04.817Z,4.34
2019-02-21T07:32:04.837Z,4.49
2019-02-21T07:33:04.798Z,4.49
2019-02-21T07:34:06.981Z,4.49
2019-02-21T07:35:04.805Z,4.62
2019-02-21T07:36:04.767Z,4.62
2019-02-21T07:37:04.756Z,4.68
2019-02-21T07:38:04.746Z,4.67
2019-02-21T07:39:16.468Z,4.78
2019-02-21T07:40:06.733Z,4.82
2019-02-21T07:41:04.819Z,4.82
2019-02-21T07:42:04.708Z,4.84
2019-02-21T07:43:04.701Z,4.84
2019-02-21T07:44:11.985Z,4.90
2019-02-21T07:45:05.807Z,4.92
2019-02-21T07:46:06.875Z,4.92
2019-02-21T07:47:04.654Z,4.87
2019-02-21T07:48:04.655Z,4.87
2019-02-21T07:49:04.648Z,4.84
2019-02-21T07:50:04.617Z,4.87
2019-02-21T07:51:04.675Z,4.87
2019-02-21T07:52:05.572Z,4.89
2019-02-21T07:53:04.599Z,4.84
2019-02-21T07:54:04.584Z,4.99
2019-02-21T07:55:04.604Z,4.99
2019-02-21T07:56:04.564Z,4.94
2019-02-21T07:57:04.537Z,4.93
2019-02-21T07:58:04.542Z,4.93
2019-02-21T07:59:04.560Z,5.05
2019-02-21T08:00:04.629Z,5.12
2019-02-21T08:01:04.550Z,5.12
2019-02-21T08:02:04.534Z,5.04
2019-02-21T08:03:04.483Z,5.25
2019-02-21T08:04:04.465Z,5.39
2019-02-21T08:05:04.512Z,5.43
2019-02-21T08:06:04.488Z,5.53
2019-02-21T08:07:04.450Z,5.62
2019-02-21T08:08:04.425Z,5.64
2019-02-21T08:09:04.634Z,5.57
2019-02-21T08:10:04.500Z,5.53
2019-02-21T08:11:06.997Z,5.51
2019-02-21T08:12:04.375Z,5.51
2019-02-21T08:13:04.392Z,5.50
2019-02-21T08:14:04.397Z,5.53
2019-02-21T08:15:04.379Z,5.48
2019-02-21T08:16:04.328Z,5.51
2019-02-21T08:17:04.315Z,5.44
2019-02-21T08:18:04.310Z,5.53
2019-02-21T08:19:04.354Z,5.47
2019-02-21T08:20:08.343Z,5.47
2019-02-21T08:21:04.270Z,5.53
2019-02-21T08:22:04.265Z,5.59
2019-02-21T08:23:04.308Z,5.66
2019-02-21T08:24:04.239Z,5.80
2019-02-21T08:25:04.230Z,5.89
2019-02-21T08:26:04.221Z,5.87
2019-02-21T08:27:04.217Z,6.05
2019-02-21T08:28:04.219Z,6.05
2019-02-21T08:29:06.144Z,5.98
2019-02-21T08:30:04.320Z,6.08
2019-02-21T08:31:04.160Z,6.08
2019-02-21T08:32:04.183Z,6.14
2019-02-21T08:33:04.179Z,6.17
2019-02-21T08:34:04.520Z,6.35
2019-02-21T08:35:06.754Z,6.45
2019-02-21T08:36:04.112Z,6.41
2019-02-21T08:37:04.095Z,6.44
2019-02-21T08:38:04.105Z,6.42
2019-02-21T08:39:04.110Z,6.45
2019-02-21T08:40:04.060Z,6.46
2019-02-21T08:41:04.046Z,6.49
2019-02-21T08:42:04.044Z,6.31
2019-02-21T08:43:04.245Z,6.27
2019-02-21T08:44:04.032Z,6.28
2019-02-21T08:45:04.012Z,6.33
2019-02-21T08:46:04.332Z,6.44
2019-02-21T08:47:03.974Z,6.42
2019-02-21T08:48:03.961Z,6.46
2019-02-21T08:49:04.001Z,6.62
2019-02-21T08:50:03.956Z,6.78
2019-02-21T08:51:06.077Z,6.79
2019-02-21T08:52:03.955Z,6.99
2019-02-21T08:53:03.938Z,6.82
2019-02-21T08:54:05.675Z,6.92
2019-02-21T08:55:03.888Z,6.89
2019-02-21T08:56:03.889Z,7.00
2019-02-21T08:57:03.897Z,7.13
2019-02-21T08:58:03.850Z,7.11
2019-02-21T08:59:03.857Z,7.31
2019-02-21T09:00:03.825Z,7.43
2019-02-21T09:01:03.834Z,7.63
2019-02-21T09:02:05.113Z,7.83
2019-02-21T09:03:03.787Z,8.12
2019-02-21T09:04:13.373Z,8.18
2019-02-21T09:05:04.799Z,8.19
2019-02-21T09:06:03.759Z,8.28
2019-02-21T09:07:03.783Z,8.52
2019-02-21T09:08:03.747Z,8.44
2019-02-21T09:09:03.720Z,8.58
2019-02-21T09:10:03.710Z,8.58
2019-02-21T09:11:04.193Z,8.52
2019-02-21T09:12:05.638Z,8.41
2019-02-21T09:13:03.668Z,8.10
2019-02-21T09:14:03.670Z,7.93
2019-02-21T09:15:03.663Z,7.85
2019-02-21T09:16:03.663Z,7.80
2019-02-21T09:17:03.642Z,7.77
2019-02-21T09:18:03.604Z,7.77
2019-02-21T09:19:03.596Z,7.85
2019-02-21T09:20:03.615Z,7.93
2019-02-21T09:21:03.589Z,7.85
2019-02-21T09:22:03.645Z,7.63
2019-02-21T09:23:03.545Z,7.58
2019-02-21T09:24:03.529Z,7.57
2019-02-21T09:25:03.551Z,7.60
2019-02-21T09:26:03.521Z,7.54
2019-02-21T09:27:03.538Z,7.54
2019-02-21T09:28:03.485Z,7.57
2019-02-21T09:29:03.476Z,7.66
2019-02-21T09:30:05.172Z,7.76
2019-02-21T09:31:03.548Z,7.95
2019-02-21T09:32:03.434Z,7.95
2019-02-21T09:33:03.476Z,7.95
2019-02-21T09:34:03.407Z,8.01
2019-02-21T09:35:03.435Z,8.13
2019-02-21T09:36:03.392Z,8.20
2019-02-21T09:39:53.595Z,8.24
2019-02-21T09:40:20.795Z,8.27
2019-02-21T09:41:20.784Z,8.30
2019-02-21T09:42:20.775Z,8.13
2019-02-21T09:43:20.779Z,8.19
2019-02-21T09:44:20.747Z,8.15
2019-02-21T09:45:20.762Z,8.26
2019-02-21T09:46:20.723Z,8.37
2019-02-21T09:47:20.731Z,8.31
2019-02-21T09:48:20.709Z,8.36
2019-02-21T09:49:20.705Z,8.44
2019-02-21T09:50:20.709Z,8.48
2019-02-21T09:51:20.669Z,8.49
2019-02-21T09:52:20.653Z,8.53
2019-02-21T09:53:20.661Z,8.48
2019-02-21T09:54:20.640Z,8.45
2019-02-21T09:55:20.733Z,8.42
2019-02-21T09:56:30.013Z,8.38
2019-02-21T09:57:21.605Z,8.36
2019-02-21T09:58:20.610Z,8.45
2019-02-21T09:59:20.632Z,8.42
2019-02-21T10:00:20.590Z,8.41
2019-02-21T10:01:20.542Z,8.42
2019-02-21T10:02:22.979Z,8.42
2019-02-21T10:03:20.537Z,8.42
2019-02-21T10:04:20.516Z,8.46
2019-02-21T10:05:20.635Z,8.45
2019-02-21T10:06:20.578Z,8.41
2019-02-21T10:07:20.474Z,8.41
2019-02-21T10:08:21.971Z,8.37
2019-02-21T10:09:20.450Z,8.28
2019-02-21T10:10:20.579Z,8.38
2019-02-21T10:11:20.418Z,8.28
2019-02-21T10:12:20.407Z,8.38
2019-02-21T10:13:20.435Z,8.56
2019-02-21T10:14:21.554Z,8.51
2019-02-21T10:15:20.374Z,8.58
2019-02-21T10:16:20.384Z,8.60
2019-02-21T10:17:20.349Z,8.64
2019-02-21T10:18:20.365Z,8.81
2019-02-21T10:19:20.326Z,8.82
2019-02-21T10:20:20.311Z,8.95
2019-02-21T10:21:20.297Z,9.10
2019-02-21T10:22:20.329Z,9.16
2019-02-21T10:23:20.414Z,9.32
2019-02-21T10:24:20.261Z,9.56
2019-02-21T10:25:22.937Z,9.76
2019-02-21T10:26:20.271Z,10.20
2019-02-21T10:27:20.248Z,10.63
2019-02-21T10:28:20.220Z,10.90
2019-02-21T10:29:20.209Z,11.26
2019-02-21T10:30:20.192Z,11.52
2019-02-21T10:31:20.222Z,11.54
2019-02-21T10:32:20.166Z,11.62
2019-02-21T10:33:20.180Z,11.84
2019-02-21T10:34:21.876Z,11.95
2019-02-21T10:35:20.137Z,12.03
2019-02-21T10:36:20.166Z,11.97
2019-02-21T10:37:20.116Z,11.94
2019-02-21T10:38:20.098Z,11.72
2019-02-21T10:39:20.093Z,11.51
2019-02-21T10:40:20.082Z,11.17
2019-02-21T10:41:20.092Z,11.05
2019-02-21T10:42:20.092Z,10.97
2019-02-21T10:43:20.083Z,10.93
2019-02-21T10:44:20.039Z,10.92
2019-02-21T10:45:20.024Z,10.76
2019-02-21T10:46:20.015Z,10.82
2019-02-21T10:47:20.030Z,10.72
2019-02-21T10:48:19.984Z,11.04
2019-02-21T10:49:20.047Z,11.12
2019-02-21T10:50:19.981Z,10.97
2019-02-21T10:51:19.953Z,10.89
2019-02-21T10:52:19.986Z,10.90
2019-02-21T10:53:19.966Z,10.96
2019-02-21T10:54:19.918Z,11.11
2019-02-21T10:55:19.906Z,11.23
2019-02-21T10:56:19.924Z,11.35
2019-02-21T10:57:19.902Z,11.50
2019-02-21T10:58:20.022Z,11.47
2019-02-21T10:59:19.895Z,11.32
2019-02-21T11:00:19.848Z,11.22
2019-02-21T11:01:19.835Z,11.12
2019-02-21T11:02:19.825Z,11.02
2019-02-21T11:03:19.849Z,11.04
2019-02-21T11:04:19.821Z,10.93
2019-02-21T11:05:19.805Z,10.90
2019-02-21T11:06:19.781Z,10.78
2019-02-21T11:07:19.767Z,10.82
2019-02-21T11:08:19.785Z,11.00
2019-02-21T11:09:19.750Z,11.02
2019-02-21T11:10:19.737Z,11.22
2019-02-21T11:11:19.731Z,11.36
2019-02-21T11:12:19.709Z,11.40
2019-02-21T11:13:19.730Z,11.52
2019-02-21T11:14:19.687Z,11.70
2019-02-21T11:15:19.756Z,11.88
2019-02-21T11:16:19.666Z,11.88
2019-02-21T11:17:19.655Z,11.87
2019-02-21T11:18:19.680Z,11.70
2019-02-21T11:19:19.656Z,11.57
2019-02-21T11:20:19.639Z,11.41
2019-02-21T11:21:19.694Z,11.41
2019-02-21T11:22:19.597Z,11.18
2019-02-21T11:23:19.585Z,11.07
2019-02-21T11:24:19.603Z,11.02
2019-02-21T11:25:19.563Z,10.82
2019-02-21T11:26:19.571Z,10.76
2019-02-21T11:27:19.547Z,10.74
2019-02-21T11:28:19.530Z,10.67
2019-02-21T11:29:19.527Z,10.61
2019-02-21T11:30:19.503Z,10.56
2019-02-21T11:31:19.546Z,10.60
2019-02-21T11:32:19.482Z,10.68
2019-02-21T11:33:19.485Z,10.74
2019-02-21T11:34:19.461Z,10.76
2019-02-21T11:35:19.449Z,10.86
2019-02-21T11:36:19.463Z,10.93
2019-02-21T11:37:19.426Z,11.07
2019-02-21T11:38:19.419Z,11.17
2019-02-21T11:39:19.402Z,11.25
2019-02-21T11:40:19.401Z,11.35
2019-02-21T11:41:19.421Z,11.45
2019-02-21T11:42:19.365Z,11.69
2019-02-21T11:43:19.368Z,11.84
2019-02-21T11:44:19.343Z,11.91
2019-02-21T11:45:19.341Z,12.09
2019-02-21T11:46:19.364Z,12.09
2019-02-21T11:47:19.344Z,12.06
2019-02-21T11:48:19.305Z,11.95
2019-02-21T11:49:19.288Z,11.97
2019-02-21T11:50:19.287Z,11.94
2019-02-21T11:51:19.298Z,11.84
2019-02-21T11:52:19.291Z,11.87
2019-02-21T11:53:19.243Z,12.00
2019-02-21T11:54:26.517Z,11.95
2019-02-21T11:55:20.229Z,11.90
2019-02-21T11:56:19.232Z,11.86
2019-02-21T11:57:19.199Z,11.91
2019-02-21T11:58:19.223Z,12.07
2019-02-21T11:59:19.175Z,12.12
2019-02-21T12:00:19.163Z,12.15
2019-02-21T12:01:19.154Z,12.18
2019-02-21T12:02:19.163Z,12.31
2019-02-21T12:03:21.264Z,12.35
2019-02-21T12:04:19.145Z,12.31
2019-02-21T12:05:30.249Z,12.36
2019-02-21T12:06:20.090Z,12.31
2019-02-21T12:07:19.125Z,12.42
2019-02-21T12:08:19.188Z,12.45
2019-02-21T12:09:19.057Z,12.36
2019-02-21T12:10:19.057Z,12.29
2019-02-21T12:11:19.040Z,12.31
2019-02-21T12:12:19.062Z,12.28
2019-02-21T12:13:19.012Z,12.31
2019-02-21T12:14:19.046Z,12.29
2019-02-21T12:15:18.993Z,12.31
2019-02-21T12:16:18.976Z,12.29
2019-02-21T12:17:18.999Z,12.31
2019-02-21T12:18:18.957Z,12.42
2019-02-21T12:19:18.969Z,12.58
2019-02-21T12:20:19.000Z,12.67
2019-02-21T12:21:18.921Z,12.76
2019-02-21T12:22:18.950Z,12.86
2019-02-21T12:23:18.895Z,12.93
2019-02-21T12:24:18.887Z,12.93
2019-02-21T12:25:18.878Z,12.72
2019-02-21T12:26:18.871Z,12.86
2019-02-21T12:27:18.889Z,12.82
2019-02-21T12:28:18.841Z,12.82
2019-02-21T12:29:18.826Z,12.79
2019-02-21T12:30:18.826Z,12.79
2019-02-21T12:31:18.835Z,12.70
2019-02-21T12:32:18.792Z,12.68
2019-02-21T12:33:18.791Z,12.73
2019-02-21T12:34:18.785Z,12.79
2019-02-21T12:35:29.352Z,12.93
2019-02-21T12:36:19.788Z,12.85
2019-02-21T12:37:18.738Z,12.95
2019-02-21T12:38:18.726Z,13.01
2019-02-21T12:39:18.713Z,13.08
2019-02-21T12:40:18.706Z,13.00
2019-02-21T12:41:18.706Z,12.90
2019-02-21T12:42:18.704Z,12.79
2019-02-21T12:43:18.668Z,12.80
2019-02-21T12:44:18.656Z,12.70
2019-02-21T12:45:18.650Z,12.57
2019-02-21T12:46:18.636Z,12.50
2019-02-21T12:47:18.654Z,12.46
2019-02-21T12:48:18.633Z,12.46
2019-02-21T12:49:18.604Z,12.50
2019-02-21T12:50:18.588Z,12.35
2019-02-21T12:51:18.583Z,12.42
2019-02-21T12:52:18.599Z,12.47
2019-02-21T12:53:18.557Z,12.43
2019-02-21T12:54:18.541Z,12.43
2019-02-21T12:55:27.102Z,12.43
2019-02-21T12:56:19.519Z,12.47
2019-02-21T12:57:18.539Z,12.40
2019-02-21T12:58:18.557Z,12.36
2019-02-21T12:59:18.492Z,12.32
2019-02-21T13:00:18.487Z,12.29
2019-02-21T13:01:18.461Z,12.24
2019-02-21T13:02:18.449Z,12.18
2019-02-21T13:03:18.470Z,12.22
2019-02-21T13:04:18.429Z,12.27
2019-02-21T13:05:18.416Z,12.29
2019-02-21T13:06:18.422Z,12.32
2019-02-21T13:07:18.402Z,12.35
2019-02-21T13:08:18.428Z,12.45
2019-02-21T13:09:18.371Z,12.46
2019-02-21T13:10:18.391Z,12.36
2019-02-21T13:11:18.343Z,12.40
2019-02-21T13:12:18.334Z,12.50
2019-02-21T13:13:18.357Z,12.47
2019-02-21T13:14:18.341Z,12.35
2019-02-21T13:15:18.306Z,12.50
2019-02-21T13:16:18.305Z,12.47
2019-02-21T13:17:18.275Z,12.61
2019-02-21T13:18:18.344Z,12.60
2019-02-21T13:19:18.255Z,12.65
2019-02-21T13:20:18.241Z,12.75
2019-02-21T13:21:18.247Z,12.90
2019-02-21T13:22:18.225Z,12.87
2019-02-21T13:23:18.249Z,12.90
2019-02-21T13:24:18.198Z,12.65
2019-02-21T13:25:18.195Z,12.85
2019-02-21T13:26:18.178Z,12.68
2019-02-21T13:27:18.162Z,12.65
2019-02-21T13:28:18.179Z,12.67
2019-02-21T13:29:18.141Z,12.65
2019-02-21T13:30:18.135Z,12.68